Dauntless Aviation
Airports North America United States Kentucky
KDWU
DWU
DWU
I28

ASHLAND RGNL AIRPORT

ASHLAND, KY, USA

Airport Info
Suggest Updated Information for this Airport

Location

Latitude / Longitude: 38°33'16"N / 82°44'15"W
  38°33.2676'N / 82°44.2597'W
  38.5545 / -82.7377
Elevation: 546.7 ft. (surveyed)
Variation: 05W (1995)
From city: 06 miles NW of ASHLAND, KY

Operations

Facility use: Open to the public
Sectional chart: CINCINNATI
Control tower: no
Boundary ARTCC: INDIANAPOLIS
Responsible ARTCC: INDIANAPOLIS
FSS: LOUISVILLE [1-800-WX-BRIEF]
NOTAMs facility: LOU (NOTAM-D service available)
Segmented circle: yes
Lights: SEE RMK
Beacon: CLEAR-GREEN (LIGHTED LAND AIRPORT)
Landing fee: yes

Communications

UNICOM: 122.800
CTAF: 122.800

Nearby radio navigation aids

VOR radial/distance VOR name Freq Var
YRK 115oT/12.5 YORK VORTAC 112.80 05W
ECB 19oT/25.1 NEWCOMBE VORTAC 110.40 02W
HNN 250oT/35.4 HENDERSON VORTAC 115.90 03W
 
NDB name Hdg/Dist Freq Var ID
PORTSMOUTH 160oT/14.5 373 04W PMH
GALLIPOLIS 238oT/31.8 420 07W GAS
PEEBLES 128oT/35.3 329 02W PZO
WAVERLY 166oT/37.9 385 06W EOP

Services

Fuel available: 100LLA
Airframe service: MINOR
Powerplant service: MINOR
Bulk oxygen: NONE

Runway Information

Runway 10/28

Dimensions: 5402 x 100 ft.
Surface: ASPHALT OR BITUMINOUS CONCRETE,GOOD CONDITION,NO SPECIAL SURFACE TREATMENT
Edge lights: MEDIUM
 
Runway 10
Runway 28
Latitude: 38-33-19.8557N 38-33-12.2597N
Longitude: 082-44-49.2377W 082-43-41.9283W
Elevation: 546.5 ft. 544.8 ft.
Traffic pattern: left left
Runway true heading: 098 278
Markings: nonprecision instrument, in good condition nonprecision instrument, in good condition
Visual slope indicator: 2-LGT PAPI ON LEFT SIDE OF RUNWAY (3.00 degrees glide path) 2-LGT PAPI ON LEFT SIDE OF RUNWAY (4.00 degrees glide path)
Runway end identifier lights: yes yes
 

Operational Statistics

Annual operations: 6900
Air taxi: 500
Local: 3450
Itinerant: 2700
Military: 250

Additional Remarks

  • BIRDS ON & INVOF ARPT.
  • FOR CD CTC INDIANAPOLIS ARTCC AT 317-247-2411.

Instrument Procedures

Effective Oct 08, 2020 to Nov 04, 2020

IAPs (Instrument Approach Procedures)

   RNAV (GPS) RWY 10 (PDF)
   RNAV (GPS) RWY 28 (PDF)
   VOR/DME RWY 10 (PDF)
   TAKEOFF MINIMUMS (PDF)
   ALTERNATE MINIMUMS (PDF)
 
    Legends & General Information
    Airport Diagram Legend
Topographic chart at:
Satellite photo at:
Airport distance calculator
From:
Weather Reports

METAR

KDWU

KDWU 251256Z AUTO 00000KT 10SM -RA OVC012 08/07 A3010 RMK AO2 SLP196 T00780072 PNO $
KHTS
14.3nm SE
KHTS 251251Z 04005KT 10SM OVC010 08/06 A3008 RMK AO2 RAE21 SLP186 P0000 T00780061
K3I2
36.9nm NE
K3I2 251335Z AUTO 36004KT 4SM -DZ SCT010 BKN017 OVC027 08/07 A3014 RMK AO2 T00750066

TAF

KHTS
14.3nm SE
KHTS 251140Z 2512/2612 04006KT 6SM -RADZ BR OVC012 FM251500 04005KT P6SM OVC013 FM260000 03004KT P6SM BKN025 FM260300 04003KT 6SM -RADZ BR SCT008 OVC016
Safelog

 

Dauntless Aviation

© 2007-2020 Dauntless Aviation, all rights reserved
Information provided via PilotNav comes from a variety of official and unofficial data sources. As errors are possible, do not use PilotNav for primary flight planning purposes. Verify any information that you receive via PilotNav with current and canonical charts and other official documents. The material in this database is subject to database copyrights held by Dauntless Aviation and may not be copied without the express permission of Dauntless Aviation - licenses for use of part of all of this data are available for purchase; enquire via the Dauntless Aviation helpdesk. A number of mechanisms and markers exist in the database to protect against and identify infringement / copyright. Automated queries against this website are strictly prohibited, and all activity is logged and analyzed.